createdAt,value
2018-07-05T00:01:04.190Z,0.00
2018-07-05T00:02:35.862Z,0.00
2018-07-05T00:04:07.334Z,0.00
2018-07-05T00:05:38.906Z,0.00
2018-07-05T00:07:10.484Z,0.00
2018-07-05T00:08:42.049Z,0.00
2018-07-05T00:10:13.620Z,0.00
2018-07-05T00:11:45.192Z,0.00
2018-07-05T00:13:16.764Z,0.00
2018-07-05T00:14:48.336Z,0.00
2018-07-05T00:16:19.907Z,0.00
2018-07-05T00:17:51.481Z,0.00
2018-07-05T00:19:23.051Z,0.00
2018-07-05T00:20:55.524Z,0.00
2018-07-05T00:22:26.195Z,0.00
2018-07-05T00:23:57.766Z,0.00
2018-07-05T00:25:29.339Z,0.00
2018-07-05T00:27:00.911Z,0.00
2018-07-05T00:28:32.482Z,0.00
2018-07-05T00:30:04.054Z,0.00
2018-07-05T00:31:35.625Z,0.00
2018-07-05T00:33:07.347Z,0.00
2018-07-05T00:34:38.768Z,0.00
2018-07-05T00:36:10.342Z,0.00
2018-07-05T00:37:41.912Z,0.00
2018-07-05T00:39:13.785Z,0.00
2018-07-05T00:40:45.056Z,0.00
2018-07-05T00:42:16.628Z,0.00
2018-07-05T00:43:48.199Z,0.00
2018-07-05T00:45:19.771Z,0.00
2018-07-05T00:46:51.343Z,0.00
2018-07-05T00:48:22.915Z,0.00
2018-07-05T00:49:54.487Z,0.00
2018-07-05T00:51:26.159Z,0.00
2018-07-05T00:52:57.629Z,0.00
2018-07-05T00:54:29.202Z,0.00
2018-07-05T00:56:00.773Z,0.00
2018-07-05T00:57:32.444Z,0.00
2018-07-05T00:59:03.917Z,0.00
2018-07-05T01:00:35.487Z,0.00
2018-07-05T01:02:07.060Z,0.00
2018-07-05T01:03:38.630Z,0.00
2018-07-05T01:05:10.201Z,0.00
2018-07-05T01:06:41.775Z,0.00
2018-07-05T01:08:13.345Z,0.00
2018-07-05T01:09:44.915Z,0.00
2018-07-05T01:11:16.487Z,0.00
2018-07-05T01:12:48.062Z,0.00
2018-07-05T01:14:19.629Z,0.00
2018-07-05T01:15:51.304Z,0.00
2018-07-05T01:17:22.775Z,0.00
2018-07-05T01:18:54.344Z,0.00
2018-07-05T01:20:25.915Z,0.00
2018-07-05T01:21:57.488Z,0.00
2018-07-05T01:23:29.058Z,0.00
2018-07-05T01:25:00.629Z,0.00
2018-07-05T01:26:32.200Z,0.00
2018-07-05T01:28:03.771Z,0.00
2018-07-05T01:29:35.343Z,0.00
2018-07-05T01:31:06.914Z,0.00
2018-07-05T01:32:38.485Z,0.00
2018-07-05T01:34:10.157Z,0.00
2018-07-05T01:35:41.628Z,0.00
2018-07-05T01:37:13.201Z,0.00
2018-07-05T01:38:44.770Z,0.00
2018-07-05T01:40:16.492Z,0.00
2018-07-05T01:41:47.913Z,0.00
2018-07-05T01:43:19.484Z,0.00
2018-07-05T01:44:51.058Z,0.00
2018-07-05T01:46:22.627Z,0.00
2018-07-05T01:47:54.197Z,0.00
2018-07-05T01:49:25.768Z,0.00
2018-07-05T01:50:57.340Z,0.00
2018-07-05T01:52:29.462Z,0.00
2018-07-05T01:54:00.482Z,0.00
2018-07-05T01:55:32.052Z,0.00
2018-07-05T01:57:03.624Z,0.00
2018-07-05T01:58:35.194Z,0.00
2018-07-05T02:00:06.766Z,0.00
2018-07-05T02:01:38.335Z,0.00
2018-07-05T02:03:09.905Z,0.00
2018-07-05T02:04:41.480Z,0.00
2018-07-05T02:06:13.048Z,0.00
2018-07-05T02:07:44.618Z,0.00
2018-07-05T02:09:16.189Z,0.00
2018-07-05T02:10:47.859Z,0.00
2018-07-05T02:12:19.330Z,0.00
2018-07-05T02:13:50.900Z,0.00
2018-07-05T02:15:22.470Z,0.00
2018-07-05T02:16:54.041Z,0.00
2018-07-05T02:18:25.619Z,0.00
2018-07-05T02:19:57.182Z,0.00
2018-07-05T02:21:28.757Z,0.00
2018-07-05T02:23:00.426Z,0.00
2018-07-05T02:24:31.894Z,0.00
2018-07-05T02:26:03.464Z,0.00
2018-07-05T02:27:35.035Z,0.00
2018-07-05T02:29:06.955Z,0.00
2018-07-05T02:30:38.180Z,0.00
2018-07-05T02:32:09.747Z,0.00
2018-07-05T02:33:41.315Z,0.00
2018-07-05T02:35:12.886Z,0.00
2018-07-05T02:36:44.456Z,0.00
2018-07-05T02:38:16.026Z,0.00
2018-07-05T02:39:47.597Z,0.00
2018-07-05T02:41:19.167Z,0.00
2018-07-05T02:42:50.737Z,0.00
2018-07-05T02:44:22.308Z,0.00
2018-07-05T02:45:53.881Z,0.00
2018-07-05T02:47:25.548Z,0.00
2018-07-05T02:48:57.018Z,0.00
2018-07-05T02:50:28.589Z,0.00
2018-07-05T02:52:00.163Z,0.00
2018-07-05T02:53:31.729Z,0.00
2018-07-05T02:55:03.299Z,0.00
2018-07-05T02:56:34.870Z,0.00
2018-07-05T02:58:06.441Z,0.00
2018-07-05T02:59:38.261Z,0.00
2018-07-05T03:01:09.581Z,0.00
2018-07-05T03:02:41.151Z,0.00
2018-07-05T03:04:12.721Z,0.00
2018-07-05T03:05:44.392Z,0.00
2018-07-05T03:07:15.862Z,0.00
2018-07-05T03:08:47.434Z,0.00
2018-07-05T03:10:19.002Z,0.00
2018-07-05T03:11:50.573Z,0.00
2018-07-05T03:13:22.142Z,0.00
2018-07-05T03:14:53.723Z,0.00
2018-07-05T03:16:25.291Z,0.00
2018-07-05T03:17:56.854Z,0.00
2018-07-05T03:19:28.431Z,0.00
2018-07-05T03:20:59.995Z,0.00
2018-07-05T03:22:31.564Z,0.00
2018-07-05T03:24:03.385Z,0.00
2018-07-05T03:25:34.704Z,0.00
2018-07-05T03:27:06.274Z,0.00
2018-07-05T03:28:37.844Z,0.00
2018-07-05T03:30:09.665Z,0.00
2018-07-05T03:31:40.989Z,0.00
2018-07-05T03:33:12.555Z,0.00
2018-07-05T03:34:44.126Z,0.00
2018-07-05T03:36:15.694Z,0.00
2018-07-05T03:37:47.265Z,0.00
2018-07-05T03:39:18.835Z,0.00
2018-07-05T03:40:50.404Z,0.00
2018-07-05T03:42:22.275Z,0.00
2018-07-05T03:43:53.544Z,0.00
2018-07-05T03:45:25.114Z,0.00
2018-07-05T03:46:56.683Z,0.00
2018-07-05T03:48:28.253Z,0.00
2018-07-05T03:49:59.823Z,0.00
2018-07-05T03:51:31.421Z,0.00
2018-07-05T03:53:02.963Z,0.00
2018-07-05T03:54:34.535Z,0.00
2018-07-05T03:56:06.103Z,0.00
2018-07-05T03:57:37.672Z,0.00
2018-07-05T03:59:09.242Z,0.00
2018-07-05T04:00:40.912Z,0.00
2018-07-05T04:02:12.382Z,0.00
2018-07-05T04:03:43.953Z,0.00
2018-07-05T04:05:15.521Z,0.00
2018-07-05T04:06:47.091Z,0.00
2018-07-05T04:08:18.685Z,0.00
2018-07-05T04:09:50.231Z,0.00
2018-07-05T04:11:21.801Z,0.00
2018-07-05T04:12:53.521Z,0.00
2018-07-05T04:14:24.943Z,0.00
2018-07-05T04:15:56.510Z,0.00
2018-07-05T04:17:28.080Z,0.00
2018-07-05T04:18:59.901Z,0.00
2018-07-05T04:20:31.220Z,0.00
2018-07-05T04:22:02.790Z,0.00
2018-07-05T04:23:34.359Z,0.00
2018-07-05T04:25:06.080Z,0.00
2018-07-05T04:26:37.501Z,0.00
2018-07-05T04:28:09.070Z,0.00
2018-07-05T04:29:40.639Z,0.00
2018-07-05T04:31:12.209Z,0.00
2018-07-05T04:32:43.779Z,0.00
2018-07-05T04:34:15.420Z,0.00
2018-07-05T04:35:46.919Z,0.00
2018-07-05T04:37:18.589Z,0.00
2018-07-05T04:38:50.060Z,0.00
2018-07-05T04:40:21.627Z,0.00
2018-07-05T04:41:53.197Z,0.00
2018-07-05T04:43:24.867Z,0.00
2018-07-05T04:44:56.341Z,0.00
2018-07-05T04:46:27.907Z,0.00
2018-07-05T04:47:59.574Z,0.00
2018-07-05T04:49:31.054Z,0.00
2018-07-05T04:51:02.616Z,0.00
2018-07-05T04:52:34.185Z,0.00
2018-07-05T04:54:05.756Z,0.00
2018-07-05T04:55:37.485Z,0.00
2018-07-05T04:57:08.895Z,0.00
2018-07-05T04:58:40.471Z,0.00
2018-07-05T05:00:12.034Z,0.00
2018-07-05T05:01:43.604Z,0.00
2018-07-05T05:03:15.173Z,0.00
2018-07-05T05:04:46.754Z,0.00
2018-07-05T05:06:18.313Z,0.00
2018-07-05T05:07:49.883Z,0.00
2018-07-05T05:09:21.454Z,0.00
2018-07-05T05:10:53.023Z,0.00
2018-07-05T05:12:24.605Z,0.00
2018-07-05T05:13:56.462Z,0.00
2018-07-05T05:15:27.736Z,0.00
2018-07-05T05:16:59.306Z,0.00
2018-07-05T05:18:30.871Z,0.00
2018-07-05T05:20:02.441Z,0.00
2018-07-05T05:21:34.011Z,0.00
2018-07-05T05:23:05.580Z,0.00
2018-07-05T05:24:37.150Z,0.00
2018-07-05T05:26:08.821Z,0.00
2018-07-05T05:27:40.292Z,0.00
2018-07-05T05:29:11.859Z,0.00
2018-07-05T05:30:43.428Z,0.00
2018-07-05T05:32:15.098Z,0.00
2018-07-05T05:33:46.568Z,0.00
2018-07-05T05:35:18.137Z,0.00
2018-07-05T05:36:49.707Z,0.00
2018-07-05T05:38:21.276Z,0.00
2018-07-05T05:39:52.845Z,0.00
2018-07-05T05:41:24.416Z,0.00
2018-07-05T05:42:55.985Z,0.00
2018-07-05T05:44:27.554Z,0.00
2018-07-05T05:45:59.123Z,0.00
2018-07-05T05:47:30.693Z,0.00
2018-07-05T05:49:02.262Z,0.00
2018-07-05T05:50:34.032Z,0.00
2018-07-05T05:52:05.401Z,0.00
2018-07-05T05:53:36.971Z,0.00
2018-07-05T05:55:08.542Z,0.00
2018-07-05T05:56:40.212Z,0.00
2018-07-05T05:58:11.680Z,0.00
2018-07-05T05:59:43.250Z,0.00
2018-07-05T06:01:14.820Z,0.00
2018-07-05T06:02:46.640Z,0.00
2018-07-05T06:04:17.959Z,0.00
2018-07-05T06:05:49.528Z,0.00
2018-07-05T06:07:21.103Z,0.00
2018-07-05T06:08:52.768Z,0.00
2018-07-05T06:10:24.238Z,0.00
2018-07-05T06:11:55.811Z,0.00
2018-07-05T06:13:27.376Z,0.00
2018-07-05T06:14:58.948Z,0.00
2018-07-05T06:16:30.517Z,0.00
2018-07-05T06:18:02.087Z,0.00
2018-07-05T06:19:33.655Z,0.00
2018-07-05T06:21:05.229Z,0.00
2018-07-05T06:22:36.795Z,0.00
2018-07-05T06:24:08.364Z,0.00
2018-07-05T06:25:39.970Z,0.00
2018-07-05T06:27:11.703Z,0.00
2018-07-05T06:28:43.076Z,0.00
2018-07-05T06:30:14.642Z,0.00
2018-07-05T06:31:46.212Z,0.00
2018-07-05T06:33:18.032Z,0.00
2018-07-05T06:34:49.351Z,0.00
2018-07-05T06:36:20.922Z,0.00
2018-07-05T06:37:52.489Z,0.00
2018-07-05T06:39:24.059Z,0.00
2018-07-05T06:40:55.629Z,0.00
2018-07-05T06:42:27.199Z,0.00
2018-07-05T06:43:58.767Z,0.00
2018-07-05T06:45:30.636Z,0.00
2018-07-05T06:47:01.906Z,0.00
2018-07-05T06:48:33.475Z,0.00
2018-07-05T06:50:05.045Z,0.00
2018-07-05T06:51:36.614Z,0.00
2018-07-05T06:53:08.227Z,0.00
2018-07-05T06:54:39.752Z,0.00
2018-07-05T06:56:11.321Z,0.00
2018-07-05T06:57:42.991Z,0.00
2018-07-05T06:59:14.477Z,0.00
2018-07-05T07:00:46.031Z,0.00
2018-07-05T07:02:17.598Z,0.00
2018-07-05T07:03:49.519Z,0.00
2018-07-05T07:05:20.737Z,0.00
2018-07-05T07:06:52.306Z,0.00
2018-07-05T07:08:23.875Z,0.00
2018-07-05T07:09:55.595Z,0.00
2018-07-05T07:11:27.014Z,0.00
2018-07-05T07:12:58.583Z,0.00
2018-07-05T07:14:30.153Z,0.00
2018-07-05T07:16:01.870Z,0.00
2018-07-05T07:17:33.291Z,0.00
2018-07-05T07:19:04.861Z,0.00
2018-07-05T07:20:36.429Z,0.00
2018-07-05T07:22:08.099Z,0.00
2018-07-05T07:23:39.568Z,0.00
2018-07-05T07:25:11.137Z,0.00
2018-07-05T07:26:42.706Z,0.00
2018-07-05T07:28:14.375Z,0.00
2018-07-05T07:29:45.845Z,0.00
2018-07-05T07:31:17.448Z,0.00
2018-07-05T07:32:48.990Z,0.00
2018-07-05T07:34:20.803Z,0.00
2018-07-05T07:35:52.122Z,0.00
2018-07-05T07:37:23.743Z,0.00
2018-07-05T07:38:55.294Z,0.00
2018-07-05T07:40:26.931Z,0.00
2018-07-05T07:41:58.401Z,0.00
2018-07-05T07:43:29.969Z,0.00
2018-07-05T07:45:01.541Z,0.00
2018-07-05T07:46:33.258Z,0.00
2018-07-05T07:48:04.677Z,0.00
2018-07-05T07:49:36.245Z,0.00
2018-07-05T07:51:07.815Z,0.00
2018-07-05T07:52:39.484Z,0.00
2018-07-05T07:54:10.954Z,0.00
2018-07-05T07:55:42.522Z,0.00
2018-07-05T07:57:14.092Z,0.00
2018-07-05T07:58:45.861Z,0.00
2018-07-05T08:00:17.230Z,0.00
2018-07-05T08:01:48.799Z,0.00
2018-07-05T08:03:20.370Z,0.00
2018-07-05T08:04:52.188Z,0.00
2018-07-05T08:06:23.506Z,0.00
2018-07-05T08:07:55.115Z,0.00
2018-07-05T08:09:26.645Z,0.00
2018-07-05T08:10:58.214Z,0.00
2018-07-05T08:12:29.783Z,0.00
2018-07-05T08:14:01.352Z,0.00
2018-07-05T08:15:32.921Z,0.00
2018-07-05T08:17:04.745Z,0.00
2018-07-05T08:18:36.060Z,0.00
2018-07-05T08:20:07.629Z,0.00
2018-07-05T08:21:39.197Z,0.00
2018-07-05T08:23:10.767Z,0.00
2018-07-05T08:24:42.338Z,0.00
2018-07-05T08:26:13.908Z,0.00
2018-07-05T08:27:45.477Z,0.00
2018-07-05T08:29:17.143Z,0.00
2018-07-05T08:30:48.612Z,0.00
2018-07-05T08:32:20.181Z,0.00
2018-07-05T08:33:51.751Z,0.00
2018-07-05T08:35:23.670Z,0.00
2018-07-05T08:36:54.891Z,0.00
2018-07-05T08:38:26.458Z,0.00
2018-07-05T08:39:58.028Z,0.00
2018-07-05T08:41:29.599Z,0.00
2018-07-05T08:43:01.167Z,0.00
2018-07-05T08:44:32.736Z,0.00
2018-07-05T08:46:04.305Z,0.00
2018-07-05T08:47:35.874Z,0.00
2018-07-05T08:49:07.444Z,0.00
2018-07-05T08:50:39.013Z,0.00
2018-07-05T08:52:10.583Z,0.00
2018-07-05T08:53:42.253Z,0.00
2018-07-05T08:55:16.627Z,0.00
2018-07-05T08:56:45.293Z,0.00
2018-07-05T08:58:16.936Z,0.00
2018-07-05T08:59:48.532Z,0.00
2018-07-05T09:01:20.002Z,0.00
2018-07-05T09:02:51.571Z,0.00
2018-07-05T09:04:23.141Z,0.00
2018-07-05T09:05:54.962Z,0.00
2018-07-05T09:07:26.281Z,0.00
2018-07-05T09:08:57.851Z,0.00
2018-07-05T09:10:29.421Z,0.00
2018-07-05T09:12:01.091Z,0.00
2018-07-05T09:13:32.560Z,0.00
2018-07-05T09:15:04.131Z,0.00
2018-07-05T09:16:35.704Z,0.00
2018-07-05T09:18:07.420Z,0.00
2018-07-05T09:19:38.840Z,0.00
2018-07-05T09:21:10.410Z,0.00
2018-07-05T09:22:41.980Z,0.00
2018-07-05T09:24:13.549Z,4.00
2018-07-05T09:25:45.119Z,0.00
2018-07-05T09:27:16.690Z,4.00
2018-07-05T09:28:48.259Z,8.00
2018-07-05T09:30:20.030Z,8.00
2018-07-05T09:31:51.440Z,12.00
2018-07-05T09:33:22.969Z,16.00
2018-07-05T09:34:54.539Z,24.00
2018-07-05T09:36:26.361Z,36.00
2018-07-05T09:37:57.679Z,52.00
2018-07-05T09:39:29.248Z,68.00
2018-07-05T09:41:00.818Z,88.00
2018-07-05T09:42:32.390Z,116.00
2018-07-05T09:44:03.958Z,152.00
2018-07-05T09:45:35.532Z,192.00
2018-07-05T09:47:07.211Z,252.00
2018-07-05T09:48:38.967Z,288.00
2018-07-05T09:50:10.237Z,344.00
2018-07-05T09:51:41.830Z,404.00
2018-07-05T09:53:13.376Z,448.00
2018-07-05T09:54:44.946Z,512.00
2018-07-05T09:56:16.517Z,604.00
2018-07-05T09:57:48.086Z,692.00
2018-07-05T09:59:19.656Z,828.00
2018-07-05T10:00:51.326Z,884.00
2018-07-05T10:02:22.798Z,972.00
2018-07-05T10:03:54.366Z,1044.00
2018-07-05T10:05:25.938Z,1128.00
2018-07-05T10:06:57.856Z,1260.00
2018-07-05T10:08:29.075Z,1404.00
2018-07-05T10:10:00.646Z,1492.00
2018-07-05T10:11:32.215Z,1568.00
2018-07-05T10:13:03.818Z,1696.00
2018-07-05T10:14:35.357Z,1840.00
2018-07-05T10:16:06.926Z,2132.00
2018-07-05T10:17:38.503Z,2292.00
2018-07-05T10:19:10.066Z,2272.00
2018-07-05T10:20:41.636Z,2364.00
2018-07-05T10:22:13.207Z,2512.00
2018-07-05T10:23:44.776Z,2580.00
2018-07-05T10:25:16.448Z,2744.00
2018-07-05T10:26:47.917Z,2832.00
2018-07-05T10:28:19.486Z,2784.00
2018-07-05T10:29:51.086Z,3248.00
2018-07-05T10:31:22.627Z,3704.00
2018-07-05T10:32:54.250Z,3756.00
2018-07-05T10:34:25.769Z,3612.00
2018-07-05T10:35:57.338Z,3476.00
2018-07-05T10:37:29.160Z,3948.00
2018-07-05T10:39:00.482Z,4908.00
2018-07-05T10:40:32.050Z,5328.00
2018-07-05T10:42:03.619Z,5412.00
2018-07-05T10:43:35.292Z,4740.00
2018-07-05T10:45:06.760Z,4540.00
2018-07-05T10:46:38.635Z,4660.00
2018-07-05T10:48:09.901Z,5072.00
2018-07-05T10:49:41.471Z,5564.00
2018-07-05T10:51:13.042Z,6752.00
2018-07-05T10:54:16.184Z,6256.00
2018-07-05T10:55:47.780Z,6480.00
2018-07-05T10:57:19.327Z,6484.00
2018-07-05T10:58:50.894Z,6304.00
2018-07-05T11:00:22.669Z,6408.00
2018-07-05T11:01:54.258Z,7048.00
2018-07-05T11:03:25.778Z,6872.00
2018-07-05T11:04:57.177Z,6712.00
2018-07-05T11:06:28.748Z,7352.00
2018-07-05T11:08:00.569Z,7564.00
2018-07-05T11:09:31.889Z,8364.00
2018-07-05T11:11:03.460Z,8396.00
2018-07-05T11:12:35.031Z,7740.00
2018-07-05T11:14:06.906Z,7856.00
2018-07-05T11:15:38.175Z,7972.00
2018-07-05T11:17:09.744Z,7680.00
2018-07-05T11:18:41.316Z,9056.00
2018-07-05T11:20:12.987Z,10280.00
2018-07-05T11:21:44.661Z,11412.00
2018-07-05T11:23:16.029Z,10400.00
2018-07-05T11:24:47.651Z,9976.00
2018-07-05T11:26:19.271Z,10756.00
2018-07-05T11:27:50.742Z,10080.00
2018-07-05T11:29:22.313Z,10264.00
2018-07-05T11:30:53.885Z,10024.00
2018-07-05T11:32:25.560Z,9344.00
2018-07-05T11:33:57.030Z,9112.00
2018-07-05T11:35:28.606Z,9484.00
2018-07-05T11:37:00.170Z,10208.00
2018-07-05T11:38:31.841Z,10764.00
2018-07-05T11:40:03.316Z,11088.00
2018-07-05T11:41:34.885Z,12380.00
2018-07-05T11:43:06.658Z,11312.00
2018-07-05T11:44:38.138Z,10588.00
2018-07-05T11:46:09.601Z,10508.00
2018-07-05T11:47:41.173Z,12648.00
2018-07-05T11:49:12.745Z,16840.00
2018-07-05T11:50:44.325Z,17696.00
2018-07-05T11:52:15.975Z,18432.00
2018-07-05T11:53:47.490Z,17000.00
2018-07-05T11:55:19.033Z,15324.00
2018-07-05T11:56:50.705Z,16488.00
2018-07-05T11:58:22.179Z,16284.00
2018-07-05T11:59:53.818Z,17504.00
2018-07-05T12:01:25.326Z,16544.00
2018-07-05T12:02:56.981Z,17984.00
2018-07-05T12:04:28.675Z,18240.00
2018-07-05T12:06:00.345Z,21376.00
2018-07-05T12:07:31.613Z,22912.00
2018-07-05T12:09:03.188Z,23360.00
2018-07-05T12:10:34.772Z,22432.00
2018-07-05T12:12:06.333Z,24768.00
2018-07-05T12:13:37.925Z,27360.00
2018-07-05T12:15:09.581Z,27936.00
2018-07-05T12:16:41.054Z,25504.00
2018-07-05T12:18:12.628Z,22624.00
2018-07-05T12:19:44.217Z,21504.00
2018-07-05T12:21:15.776Z,22016.00
2018-07-05T12:22:47.958Z,25152.00
2018-07-05T12:24:18.981Z,24352.00
2018-07-05T12:27:22.102Z,27072.00
2018-07-05T12:28:53.650Z,29888.00
2018-07-05T12:30:25.225Z,33088.00
2018-07-05T12:31:56.806Z,29952.00
2018-07-05T12:33:28.683Z,29408.00
2018-07-05T12:34:59.952Z,31136.00
2018-07-05T12:36:31.527Z,33280.00
2018-07-05T12:38:03.675Z,31904.00
2018-07-05T12:41:06.559Z,35488.00
2018-07-05T12:42:38.137Z,38656.00
2018-07-05T12:44:09.407Z,35328.00
2018-07-05T12:45:40.985Z,46560.00
2018-07-05T12:47:12.965Z,53472.00
2018-07-05T12:50:15.716Z,54560.00
2018-07-05T12:51:47.341Z,48896.00
2018-07-05T12:53:19.115Z,50112.00
2018-07-05T12:54:50.450Z,51872.00
2018-07-05T12:56:22.540Z,50656.00
2018-07-05T12:57:53.606Z,51360.00
2018-07-05T12:59:25.187Z,53408.00
2018-07-05T13:00:56.764Z,56416.00
2018-07-05T13:02:28.343Z,58816.00
2018-07-05T13:04:00.008Z,55840.00
2018-07-05T13:05:31.505Z,58048.00
2018-07-05T13:07:03.082Z,55104.00
2018-07-05T13:08:34.966Z,60800.00
2018-07-05T13:10:06.778Z,61600.00
2018-07-05T13:11:37.922Z,62944.00
2018-07-05T13:13:09.402Z,63296.00
2018-07-05T13:14:40.984Z,63040.00
2018-07-05T13:17:44.365Z,65760.00
2018-07-05T13:19:15.825Z,62656.00
2018-07-05T13:20:47.613Z,58368.00
2018-07-05T13:22:18.924Z,63616.00
2018-07-05T13:23:50.465Z,65920.00
2018-07-05T13:26:53.629Z,64160.00
2018-07-05T13:29:57.193Z,73856.00
2018-07-05T13:31:29.328Z,72768.00
2018-07-05T13:32:59.998Z,69600.00
2018-07-05T13:34:31.535Z,50912.00
2018-07-05T13:37:34.863Z,65440.00
2018-07-05T13:39:06.278Z,59872.00
2018-07-05T13:42:09.707Z,70944.00
2018-07-05T13:43:41.325Z,69792.00
2018-07-05T13:45:12.607Z,67840.00
2018-07-05T13:46:44.185Z,73312.00
2018-07-05T13:48:15.944Z,73344.00
2018-07-05T13:49:47.704Z,69696.00
2018-07-05T13:51:18.932Z,70912.00
2018-07-05T13:52:50.713Z,72896.00
2018-07-05T13:54:22.093Z,75872.00
2018-07-05T13:55:54.456Z,76192.00
2018-07-05T13:57:25.254Z,76256.00
2018-07-05T13:58:57.041Z,75200.00
2018-07-05T14:00:28.425Z,75712.00
2018-07-05T14:02:00.203Z,74400.00
2018-07-05T14:03:31.606Z,72480.00
2018-07-05T14:05:03.367Z,69312.00
2018-07-05T14:06:34.747Z,74144.00
2018-07-05T14:08:06.434Z,74304.00
2018-07-05T14:09:38.113Z,78816.00
2018-07-05T14:11:09.493Z,80608.00
2018-07-05T14:12:41.075Z,78720.00
2018-07-05T14:14:12.658Z,77056.00
2018-07-05T14:15:44.544Z,79136.00
2018-07-05T14:17:15.822Z,78240.00
2018-07-05T14:18:47.406Z,79840.00
2018-07-05T14:20:19.139Z,81696.00
2018-07-05T14:21:50.574Z,81952.00
2018-07-05T14:23:22.154Z,77856.00
2018-07-05T14:24:53.838Z,75776.00
2018-07-05T14:26:25.614Z,77728.00
2018-07-05T14:29:28.690Z,78848.00
2018-07-05T14:31:00.105Z,80832.00
2018-07-05T14:32:32.058Z,79424.00
2018-07-05T14:34:03.252Z,66912.00
2018-07-05T14:35:35.376Z,77056.00
2018-07-05T14:37:06.646Z,82944.00
2018-07-05T14:38:37.996Z,83136.00
2018-07-05T14:40:09.794Z,81216.00
2018-07-05T14:43:13.269Z,85760.00
2018-07-05T14:46:16.459Z,85408.00
2018-07-05T14:47:47.485Z,79232.00
2018-07-05T14:49:19.068Z,82976.00
2018-07-05T14:50:50.652Z,84384.00
2018-07-05T14:53:53.823Z,81088.00
2018-07-05T14:56:56.987Z,90912.00
2018-07-05T14:58:28.635Z,91808.00
2018-07-05T15:00:00.157Z,91552.00
2018-07-05T15:01:31.744Z,91968.00
2018-07-05T15:03:03.342Z,92960.00
2018-07-05T15:04:34.908Z,91200.00
2018-07-05T15:06:06.593Z,88832.00
2018-07-05T15:07:38.076Z,84992.00
2018-07-05T15:10:41.246Z,86304.00
2018-07-05T15:12:13.122Z,90272.00
2018-07-05T15:13:44.438Z,92800.00
2018-07-05T15:15:16.008Z,94304.00
2018-07-05T15:16:47.585Z,91552.00
2018-07-05T15:18:19.214Z,86144.00
2018-07-05T15:19:50.921Z,88544.00
2018-07-05T15:21:23.406Z,89824.00
2018-07-05T15:22:54.125Z,89856.00
2018-07-05T15:25:57.592Z,93600.00
2018-07-05T15:27:28.687Z,93312.00
2018-07-05T15:29:00.266Z,85568.00
2018-07-05T15:30:31.860Z,85568.00
2018-07-05T15:32:03.429Z,81856.00
2018-07-05T15:33:35.015Z,86304.00
2018-07-05T15:35:06.603Z,90944.00
2018-07-05T15:36:38.186Z,94432.00
2018-07-05T15:38:09.769Z,90368.00
2018-07-05T15:39:41.356Z,89344.00
2018-07-05T15:41:12.939Z,90240.00
2018-07-05T15:42:45.461Z,90368.00
2018-07-05T15:44:16.210Z,86560.00
2018-07-05T15:45:47.696Z,74272.00
2018-07-05T15:48:50.864Z,91744.00
2018-07-05T15:50:22.754Z,92768.00
2018-07-05T15:51:54.035Z,86400.00
2018-07-05T15:53:25.620Z,71744.00
2018-07-05T15:54:57.431Z,83264.00
2018-07-05T15:56:28.790Z,91520.00
2018-07-05T15:58:00.377Z,91776.00
2018-07-05T15:59:31.961Z,91136.00
2018-07-05T16:02:35.232Z,83392.00
2018-07-05T16:04:07.223Z,79616.00
2018-07-05T16:05:38.302Z,84960.00
2018-07-05T16:07:09.887Z,83904.00
2018-07-05T16:08:41.675Z,82752.00
2018-07-05T16:10:13.079Z,84384.00
2018-07-05T16:13:16.230Z,90400.00
2018-07-05T16:14:47.815Z,89696.00
2018-07-05T16:16:19.635Z,88672.00
2018-07-05T16:17:50.986Z,90144.00
2018-07-05T16:19:22.829Z,89760.00
2018-07-05T16:20:54.260Z,91136.00
2018-07-05T16:22:25.744Z,95072.00
2018-07-05T16:23:57.380Z,92512.00
2018-07-05T16:25:29.227Z,83872.00
2018-07-05T16:27:00.602Z,78816.00
2018-07-05T16:28:32.088Z,79264.00
2018-07-05T16:30:03.677Z,80224.00
2018-07-05T16:31:35.259Z,84064.00
2018-07-05T16:33:07.148Z,81568.00
2018-07-05T16:34:38.460Z,85952.00
2018-07-05T16:36:10.036Z,86336.00
2018-07-05T16:37:41.805Z,87456.00
2018-07-05T16:39:13.493Z,86912.00
2018-07-05T16:40:45.310Z,88544.00
2018-07-05T16:42:16.364Z,84704.00
2018-07-05T16:43:47.947Z,83008.00
2018-07-05T16:45:19.532Z,84032.00
2018-07-05T16:46:51.117Z,82400.00
2018-07-05T16:49:54.534Z,81600.00
2018-07-05T16:51:25.874Z,75072.00
2018-07-05T16:52:57.460Z,77024.00
2018-07-05T16:56:00.748Z,73696.00
2018-07-05T16:57:32.317Z,74432.00
2018-07-05T16:59:03.799Z,74560.00
2018-07-05T17:00:35.385Z,82432.00
2018-07-05T17:05:10.169Z,81376.00
2018-07-05T17:06:41.728Z,81216.00
2018-07-05T17:08:13.309Z,78784.00
2018-07-05T17:11:16.506Z,82624.00
2018-07-05T17:12:48.062Z,80384.00
2018-07-05T17:14:19.644Z,80064.00
2018-07-05T17:15:51.240Z,82880.00
2018-07-05T17:17:23.354Z,82464.00
2018-07-05T17:18:54.424Z,82816.00
2018-07-05T17:20:25.983Z,83392.00
2018-07-05T17:21:57.568Z,76992.00
2018-07-05T17:25:00.769Z,76576.00
2018-07-05T17:26:32.325Z,79744.00
2018-07-05T17:28:03.910Z,73280.00
2018-07-05T17:29:35.495Z,73312.00
2018-07-05T17:34:10.349Z,64480.00
2018-07-05T17:35:41.835Z,27648.00
2018-07-05T17:37:13.419Z,28160.00
2018-07-05T17:38:45.307Z,61664.00
2018-07-05T17:40:16.849Z,59776.00
2018-07-05T17:41:48.347Z,61632.00
2018-07-05T17:43:19.757Z,30944.00
2018-07-05T17:44:51.340Z,29280.00
2018-07-05T17:47:55.582Z,46080.00
2018-07-05T17:49:27.031Z,31104.00
2018-07-05T17:50:57.702Z,31328.00
2018-07-05T17:52:29.257Z,30144.00
2018-07-05T17:54:01.252Z,30912.00
2018-07-05T17:55:32.509Z,41920.00
2018-07-05T17:57:04.005Z,32320.00
2018-07-05T17:58:35.601Z,27776.00
2018-07-05T18:00:07.398Z,32384.00
2018-07-05T18:01:38.805Z,50144.00
2018-07-05T18:03:10.336Z,59872.00
2018-07-05T18:04:41.918Z,56000.00
2018-07-05T18:06:13.501Z,38240.00
2018-07-05T18:07:45.337Z,50112.00
2018-07-05T18:09:16.717Z,29600.00
2018-07-05T18:10:48.294Z,30176.00
2018-07-05T18:13:51.720Z,26848.00
2018-07-05T18:16:54.883Z,32096.00
2018-07-05T18:18:26.181Z,26592.00
2018-07-05T18:19:58.085Z,26400.00
2018-07-05T18:21:29.339Z,25920.00
2018-07-05T18:24:33.243Z,26496.00
2018-07-05T18:26:04.088Z,43552.00
2018-07-05T18:27:35.656Z,43360.00
2018-07-05T18:29:07.235Z,37056.00
2018-07-05T18:30:38.818Z,42784.00
2018-07-05T18:32:10.700Z,39552.00
2018-07-05T18:33:42.040Z,39840.00
2018-07-05T18:35:13.564Z,40032.00
2018-07-05T18:36:45.179Z,38464.00
2018-07-05T18:38:16.731Z,40096.00
2018-07-05T18:39:48.820Z,37408.00
2018-07-05T18:41:19.895Z,22912.00
2018-07-05T18:42:51.478Z,24032.00
2018-07-05T18:44:23.060Z,22912.00
2018-07-05T18:45:54.643Z,20992.00
2018-07-05T18:47:26.242Z,22592.00
2018-07-05T18:50:29.694Z,24992.00
2018-07-05T18:52:01.159Z,19552.00
2018-07-05T18:53:32.915Z,21056.00
2018-07-05T18:55:04.169Z,19584.00
2018-07-05T18:56:35.727Z,25856.00
2018-07-05T18:58:07.304Z,23296.00
2018-07-05T18:59:39.189Z,22688.00
2018-07-05T19:01:10.467Z,20000.00
2018-07-05T19:02:42.149Z,19296.00
2018-07-05T19:04:13.632Z,18656.00
2018-07-05T19:05:45.415Z,18336.00
2018-07-05T19:07:16.997Z,18720.00
2018-07-05T19:08:48.729Z,20672.00
2018-07-05T19:11:51.743Z,19136.00
2018-07-05T19:13:23.121Z,16136.00
2018-07-05T19:14:54.702Z,14820.00
2018-07-05T19:16:26.400Z,13800.00
2018-07-05T19:17:57.866Z,13020.00
2018-07-05T19:19:29.451Z,12460.00
2018-07-05T19:21:01.028Z,12352.00
2018-07-05T19:22:32.912Z,13840.00
2018-07-05T19:24:04.241Z,14720.00
2018-07-05T19:25:36.318Z,15200.00
2018-07-05T19:27:08.368Z,15424.00
2018-07-05T19:28:39.211Z,14720.00
2018-07-05T19:30:10.526Z,14816.00
2018-07-05T19:31:42.096Z,14528.00
2018-07-05T19:33:13.699Z,12448.00
2018-07-05T19:36:17.044Z,7712.00
2018-07-05T19:37:48.418Z,7120.00
2018-07-05T19:39:20.000Z,6796.00
2018-07-05T19:40:51.581Z,6588.00
2018-07-05T19:43:54.742Z,6436.00
2018-07-05T19:45:26.525Z,6680.00
2018-07-05T19:46:57.971Z,6464.00
2018-07-05T19:48:29.492Z,6292.00
2018-07-05T19:50:01.073Z,6292.00
2018-07-05T19:51:33.075Z,6428.00
2018-07-05T19:53:04.223Z,6272.00
2018-07-05T19:54:35.801Z,5852.00
2018-07-05T19:56:07.381Z,5544.00
2018-07-05T19:57:39.265Z,5144.00
2018-07-05T19:59:10.541Z,4780.00
2018-07-05T20:00:42.159Z,4516.00